GHCO2: Honey Creek nr South West City, MO

Data processed at Wed May 22 2019 23:50


All information presented herein is the property of the government of the United States of America and may be revised or deleted at any time without prior notice.
Dissemination of this information without the expressed written consent of the Public Affairs Office, Tulsa District U.S. Army Corps of Engineers is strictly prohibited.
These data are gathered electronically and, as presented, have not undergone any form of quality control. These data are not guaranteed to be valid or correct.
Go to home page.
Go to station list.
Go to home page.

Upstream stations:

Downstream station:
Previous Day
Next Day
Current Day
    
SHEF ID:       GHCO2     Honey Creek near South West City
STATION TYPE:  

                STAGE  RIV-FLOW  BAT-LOAD
                   ft       cfs      volt
              Ccp-Rev   Ccp-Rev   Ccp-Rev
(US/Central)
05/22 00:00      7.70       945     12.36
05/22 01:00      7.49       864     12.30
05/22 02:00      7.32       801     12.30
05/22 03:00      7.20       757     12.30
05/22 04:00      7.09       718     12.30
05/22 05:00      7.00       687     12.30
05/22 06:00      6.90       653     12.30
05/22 07:00      6.81       622     12.30
05/22 08:00      6.70       586     12.30
05/22 09:00      6.68       580     12.30
05/22 10:00      6.61       557     12.36
05/22 11:00      6.55       538     12.36
05/22 12:00      6.49       520     12.42
05/22 13:00      6.41       495     12.48
05/22 14:00      6.34       474     12.54
05/22 15:00      6.30       462     12.60
05/22 16:00      6.27       453     12.60
05/22 17:00      6.21       435     12.60
05/22 18:00      6.12       410     12.54
05/22 19:00      6.08       398     12.48
05/22 20:00      6.06       393     12.42
05/22 21:00      6.06       393     12.42
05/22 22:00      6.09       401     12.42
05/22 23:00      6.03       384     12.42